PWSweather.com
Personal Weather Stations
Station Observations
MIKESPOST
YorkGB

YorkGB

Lat: 53.9577018, Lon: -1.0822855

Elevation: 0

Station Type: WH1081

High Low Average
Temperature 58.5°F14.7°C 29.8°F-1.2°C 43.9°F6.6°C
Dew Point 34.3°F1.3°C 25.3°F-3.7°C 29.6°F-1.3°C
Winds 10.5 mph 16.9 kmh Calm Calm 4.0 mph SE6.4 kmh SE
Wind Gusts 17.1 mph27.5 kmh -- 6.0 mph9.7 kmh
Humidity 86% 31% 61%
Pressure 30.59 in1035.9 mb 30.13 in1020.3 mb -
Precipitation 0.00 in0.0 mm - -
Hour Temp Dew Point Humidity Winds Wind Gusts Pressure Precip Precip Rate Daily Precip Total
12:07 AM 30.0°F-1.1°C 25.5°F-3.6°C 83% Calm Calm -- 30.59 in1035.9 mb 0.00 in0.0 mm 0.00 in/hr0.0 mm/hr 0.00 in0.0 mm
12:17 AM 29.8°F-1.2°C 25.6°F-3.6°C 84% Calm Calm -- 30.59 in1035.9 mb 0.00 in0.0 mm 0.00 in/hr0.0 mm/hr 0.00 in0.0 mm
12:27 AM 30.2°F-1.0°C 26.0°F-3.3°C 84% 0.1 mph W0.2 kmh W 1.0 mph1.6 kmh 30.59 in1035.9 mb 0.00 in0.0 mm 0.00 in/hr0.0 mm/hr 0.00 in0.0 mm
12:37 AM 30.4°F-0.9°C 26.4°F-3.1°C 85% Calm Calm -- 30.59 in1035.9 mb 0.00 in0.0 mm 0.00 in/hr0.0 mm/hr 0.00 in0.0 mm
12:47 AM 30.4°F-0.9°C 26.4°F-3.1°C 85% Calm Calm -- 30.59 in1035.9 mb 0.00 in0.0 mm 0.00 in/hr0.0 mm/hr 0.00 in0.0 mm
12:57 AM 30.6°F-0.8°C 26.6°F-3.0°C 85% Calm Calm -- 30.58 in1035.6 mb 0.00 in0.0 mm 0.00 in/hr0.0 mm/hr 0.00 in0.0 mm
01:07 AM 30.6°F-0.8°C 26.6°F-3.0°C 85% Calm Calm -- 30.58 in1035.6 mb 0.00 in0.0 mm 0.00 in/hr0.0 mm/hr 0.00 in0.0 mm
01:17 AM 30.7°F-0.7°C 26.8°F-2.9°C 85% 0.1 mph NW0.2 kmh NW 1.0 mph1.6 kmh 30.58 in1035.6 mb 0.00 in0.0 mm 0.00 in/hr0.0 mm/hr 0.00 in0.0 mm
01:27 AM 30.7°F-0.7°C 27.1°F-2.7°C 86% Calm Calm -- 30.59 in1035.9 mb 0.00 in0.0 mm 0.00 in/hr0.0 mm/hr 0.00 in0.0 mm
01:37 AM 30.9°F-0.6°C 27.2°F-2.7°C 86% Calm Calm -- 30.58 in1035.6 mb 0.00 in0.0 mm 0.00 in/hr0.0 mm/hr 0.00 in0.0 mm
01:47 AM 31.3°F-0.4°C 27.6°F-2.4°C 86% Calm Calm -- 30.58 in1035.6 mb 0.00 in0.0 mm 0.00 in/hr0.0 mm/hr 0.00 in0.0 mm
01:57 AM 31.6°F-0.2°C 28.0°F-2.2°C 86% Calm Calm -- 30.58 in1035.6 mb 0.00 in0.0 mm 0.00 in/hr0.0 mm/hr 0.00 in0.0 mm
02:07 AM 31.8°F-0.1°C 28.1°F-2.2°C 86% 0.1 mph W0.2 kmh W 1.0 mph1.6 kmh 30.58 in1035.6 mb 0.00 in0.0 mm 0.00 in/hr0.0 mm/hr 0.00 in0.0 mm
02:17 AM 31.6°F-0.2°C 27.7°F-2.4°C 85% Calm Calm -- 30.58 in1035.6 mb 0.00 in0.0 mm 0.00 in/hr0.0 mm/hr 0.00 in0.0 mm
02:27 AM 31.6°F-0.2°C 27.7°F-2.4°C 85% Calm Calm -- 30.58 in1035.6 mb 0.00 in0.0 mm 0.00 in/hr0.0 mm/hr 0.00 in0.0 mm
07:40 AM 41.9°F5.5°C 33.1°F0.6°C 71% 2.5 mph S4.0 kmh S 4.7 mph7.6 kmh 30.56 in1034.9 mb 0.00 in0.0 mm 0.00 in/hr0.0 mm/hr 0.00 in0.0 mm
07:50 AM 46.0°F7.8°C 34.3°F1.3°C 64% 2.5 mph S4.0 kmh S 4.7 mph7.6 kmh 30.56 in1034.9 mb 0.00 in0.0 mm 0.00 in/hr0.0 mm/hr 0.00 in0.0 mm
03:23 PM 58.5°F14.7°C 25.8°F-3.4°C 31% 3.0 mph ESE4.8 kmh ESE 6.7 mph10.8 kmh 30.41 in1029.8 mb 0.00 in0.0 mm 0.00 in/hr0.0 mm/hr 0.00 in0.0 mm
03:33 PM 56.8°F13.8°C 26.1°F-3.3°C 33% 3.5 mph S5.6 kmh S 5.7 mph9.2 kmh 30.41 in1029.8 mb 0.00 in0.0 mm 0.00 in/hr0.0 mm/hr 0.00 in0.0 mm
03:43 PM 53.2°F11.8°C 25.4°F-3.7°C 36% 2.7 mph SW4.3 kmh SW 4.7 mph7.6 kmh 30.40 in1029.5 mb 0.00 in0.0 mm 0.00 in/hr0.0 mm/hr 0.00 in0.0 mm
03:53 PM 53.4°F11.9°C 26.3°F-3.2°C 37% 4.4 mph S7.1 kmh S 8.1 mph13.0 kmh 30.40 in1029.5 mb 0.00 in0.0 mm 0.00 in/hr0.0 mm/hr 0.00 in0.0 mm
04:03 PM 52.7°F11.5°C 25.7°F-3.5°C 37% 4.5 mph E7.2 kmh E 6.7 mph10.8 kmh 30.39 in1029.1 mb 0.00 in0.0 mm 0.00 in/hr0.0 mm/hr 0.00 in0.0 mm
04:13 PM 52.0°F11.1°C 25.8°F-3.4°C 38% 4.7 mph SE7.6 kmh SE 8.1 mph13.0 kmh 30.39 in1029.1 mb 0.00 in0.0 mm 0.00 in/hr0.0 mm/hr 0.00 in0.0 mm
04:23 PM 51.8°F11.0°C 25.6°F-3.6°C 38% 4.2 mph E6.8 kmh E 5.7 mph9.2 kmh 30.39 in1029.1 mb 0.00 in0.0 mm 0.00 in/hr0.0 mm/hr 0.00 in0.0 mm
04:33 PM 51.6°F10.9°C 26.2°F-3.2°C 39% 3.8 mph E6.1 kmh E 5.7 mph9.2 kmh 30.39 in1029.1 mb 0.00 in0.0 mm 0.00 in/hr0.0 mm/hr 0.00 in0.0 mm
04:43 PM 51.6°F10.9°C 27.5°F-2.5°C 41% 4.1 mph SSE6.6 kmh SSE 6.7 mph10.8 kmh 30.38 in1028.8 mb 0.00 in0.0 mm 0.00 in/hr0.0 mm/hr 0.00 in0.0 mm
04:53 PM 51.4°F10.8°C 27.4°F-2.6°C 41% 3.8 mph E6.1 kmh E 6.7 mph10.8 kmh 30.38 in1028.8 mb 0.00 in0.0 mm 0.00 in/hr0.0 mm/hr 0.00 in0.0 mm
05:03 PM 51.4°F10.8°C 27.4°F-2.6°C 41% 4.0 mph SE6.4 kmh SE 6.7 mph10.8 kmh 30.37 in1028.4 mb 0.00 in0.0 mm 0.00 in/hr0.0 mm/hr 0.00 in0.0 mm
05:13 PM 51.6°F10.9°C 26.9°F-2.8°C 40% 5.1 mph SE8.2 kmh SE 8.1 mph13.0 kmh 30.36 in1028.1 mb 0.00 in0.0 mm 0.00 in/hr0.0 mm/hr 0.00 in0.0 mm
05:23 PM 51.4°F10.8°C 25.3°F-3.7°C 38% 4.6 mph SE7.4 kmh SE 5.7 mph9.2 kmh 30.36 in1028.1 mb 0.00 in0.0 mm 0.00 in/hr0.0 mm/hr 0.00 in0.0 mm
05:33 PM 50.7°F10.4°C 26.1°F-3.3°C 40% 4.6 mph SSE7.4 kmh SSE 5.7 mph9.2 kmh 30.36 in1028.1 mb 0.00 in0.0 mm 0.00 in/hr0.0 mm/hr 0.00 in0.0 mm
05:43 PM 50.4°F10.2°C 28.3°F-2.1°C 44% 3.9 mph SE6.3 kmh SE 6.7 mph10.8 kmh 30.35 in1027.8 mb 0.00 in0.0 mm 0.00 in/hr0.0 mm/hr 0.00 in0.0 mm
05:53 PM 50.0°F10.0°C 28.6°F-1.9°C 45% 3.6 mph S5.8 kmh S 5.7 mph9.2 kmh 30.34 in1027.4 mb 0.00 in0.0 mm 0.00 in/hr0.0 mm/hr 0.00 in0.0 mm
06:03 PM 49.6°F9.8°C 28.8°F-1.8°C 46% 2.9 mph S4.7 kmh S 4.7 mph7.6 kmh 30.34 in1027.4 mb 0.00 in0.0 mm 0.00 in/hr0.0 mm/hr 0.00 in0.0 mm
06:13 PM 49.3°F9.6°C 28.5°F-1.9°C 46% 2.5 mph SSE4.0 kmh SSE 4.7 mph7.6 kmh 30.33 in1027.1 mb 0.00 in0.0 mm 0.00 in/hr0.0 mm/hr 0.00 in0.0 mm
06:23 PM 49.1°F9.5°C 28.9°F-1.7°C 47% 3.0 mph SSE4.8 kmh SSE 4.7 mph7.6 kmh 30.33 in1027.1 mb 0.00 in0.0 mm 0.00 in/hr0.0 mm/hr 0.00 in0.0 mm
06:33 PM 48.7°F9.3°C 29.2°F-1.6°C 48% 2.4 mph S3.9 kmh S 3.4 mph5.5 kmh 30.32 in1026.8 mb 0.00 in0.0 mm 0.00 in/hr0.0 mm/hr 0.00 in0.0 mm
06:43 PM 48.6°F9.2°C 29.0°F-1.7°C 48% 2.2 mph S3.5 kmh S 3.4 mph5.5 kmh 30.32 in1026.8 mb 0.00 in0.0 mm 0.00 in/hr0.0 mm/hr 0.00 in0.0 mm
06:53 PM 48.4°F9.1°C 29.4°F-1.4°C 49% 3.1 mph SE5.0 kmh SE 5.7 mph9.2 kmh 30.31 in1026.4 mb 0.00 in0.0 mm 0.00 in/hr0.0 mm/hr 0.00 in0.0 mm
07:03 PM 48.0°F8.9°C 30.1°F-1.1°C 51% 4.0 mph S6.4 kmh S 5.7 mph9.2 kmh 30.31 in1026.4 mb 0.00 in0.0 mm 0.00 in/hr0.0 mm/hr 0.00 in0.0 mm
07:13 PM 47.5°F8.6°C 31.2°F-0.4°C 54% 4.3 mph SE6.9 kmh SE 6.7 mph10.8 kmh 30.30 in1026.1 mb 0.00 in0.0 mm 0.00 in/hr0.0 mm/hr 0.00 in0.0 mm
07:23 PM 47.3°F8.5°C 31.0°F-0.6°C 54% 4.7 mph SE7.6 kmh SE 6.7 mph10.8 kmh 30.30 in1026.1 mb 0.00 in0.0 mm 0.00 in/hr0.0 mm/hr 0.00 in0.0 mm
07:33 PM 46.9°F8.3°C 31.1°F-0.5°C 55% 5.3 mph SE8.5 kmh SE 8.1 mph13.0 kmh 30.30 in1026.1 mb 0.00 in0.0 mm 0.00 in/hr0.0 mm/hr 0.00 in0.0 mm
07:43 PM 46.6°F8.1°C 31.3°F-0.4°C 56% 5.2 mph S8.4 kmh S 6.7 mph10.8 kmh 30.29 in1025.7 mb 0.00 in0.0 mm 0.00 in/hr0.0 mm/hr 0.00 in0.0 mm
07:53 PM 46.2°F7.9°C 31.4°F-0.3°C 57% 4.8 mph SSE7.7 kmh SSE 8.1 mph13.0 kmh 30.29 in1025.7 mb 0.00 in0.0 mm 0.00 in/hr0.0 mm/hr 0.00 in0.0 mm
08:03 PM 45.7°F7.6°C 31.8°F-0.1°C 59% 5.1 mph SE8.2 kmh SE 6.7 mph10.8 kmh 30.28 in1025.4 mb 0.00 in0.0 mm 0.00 in/hr0.0 mm/hr 0.00 in0.0 mm
08:13 PM 45.3°F7.4°C 31.5°F-0.3°C 59% 4.9 mph S7.9 kmh S 5.7 mph9.2 kmh 30.28 in1025.4 mb 0.00 in0.0 mm 0.00 in/hr0.0 mm/hr 0.00 in0.0 mm
08:23 PM 45.3°F7.4°C 31.9°F-0.1°C 60% 5.7 mph SSE9.2 kmh SSE 8.1 mph13.0 kmh 30.27 in1025.1 mb 0.00 in0.0 mm 0.00 in/hr0.0 mm/hr 0.00 in0.0 mm
08:33 PM 45.1°F7.3°C 31.8°F-0.1°C 60% 5.1 mph S8.2 kmh S 8.1 mph13.0 kmh 30.26 in1024.7 mb 0.00 in0.0 mm 0.00 in/hr0.0 mm/hr 0.00 in0.0 mm
08:43 PM 45.0°F7.2°C 32.0°F0.0°C 61% 4.8 mph SSE7.7 kmh SSE 6.7 mph10.8 kmh 30.25 in1024.4 mb 0.00 in0.0 mm 0.00 in/hr0.0 mm/hr 0.00 in0.0 mm
08:53 PM 45.0°F7.2°C 32.5°F0.3°C 62% 5.5 mph S8.9 kmh S 9.1 mph14.6 kmh 30.24 in1024.0 mb 0.00 in0.0 mm 0.00 in/hr0.0 mm/hr 0.00 in0.0 mm
09:03 PM 44.6°F7.0°C 32.5°F0.3°C 63% 5.9 mph S9.5 kmh S 10.4 mph16.7 kmh 30.24 in1024.0 mb 0.00 in0.0 mm 0.00 in/hr0.0 mm/hr 0.00 in0.0 mm
09:13 PM 44.4°F6.9°C 32.8°F0.4°C 64% 5.0 mph S8.0 kmh S 8.1 mph13.0 kmh 30.23 in1023.7 mb 0.00 in0.0 mm 0.00 in/hr0.0 mm/hr 0.00 in0.0 mm
09:23 PM 44.2°F6.8°C 32.6°F0.3°C 64% 4.6 mph S7.4 kmh S 6.7 mph10.8 kmh 30.24 in1024.0 mb 0.00 in0.0 mm 0.00 in/hr0.0 mm/hr 0.00 in0.0 mm
09:33 PM 44.1°F6.7°C 33.2°F0.7°C 66% 4.4 mph SSE7.1 kmh SSE 5.7 mph9.2 kmh 30.22 in1023.4 mb 0.00 in0.0 mm 0.00 in/hr0.0 mm/hr 0.00 in0.0 mm
09:43 PM 43.9°F6.6°C 33.1°F0.6°C 66% 5.8 mph S9.3 kmh S 9.1 mph14.6 kmh 30.22 in1023.4 mb 0.00 in0.0 mm 0.00 in/hr0.0 mm/hr 0.00 in0.0 mm
09:53 PM 43.9°F6.6°C 33.1°F0.6°C 66% 5.4 mph S8.7 kmh S 6.7 mph10.8 kmh 30.20 in1022.7 mb 0.00 in0.0 mm 0.00 in/hr0.0 mm/hr 0.00 in0.0 mm
10:03 PM 43.7°F6.5°C 33.3°F0.7°C 67% 5.6 mph SSE9.0 kmh SSE 8.1 mph13.0 kmh 30.20 in1022.7 mb 0.00 in0.0 mm 0.00 in/hr0.0 mm/hr 0.00 in0.0 mm
10:13 PM 43.7°F6.5°C 33.3°F0.7°C 67% 4.8 mph S7.7 kmh S 5.7 mph9.2 kmh 30.19 in1022.4 mb 0.00 in0.0 mm 0.00 in/hr0.0 mm/hr 0.00 in0.0 mm
10:23 PM 43.7°F6.5°C 33.3°F0.7°C 67% 5.3 mph S8.5 kmh S 8.1 mph13.0 kmh 30.19 in1022.4 mb 0.00 in0.0 mm 0.00 in/hr0.0 mm/hr 0.00 in0.0 mm
10:33 PM 43.9°F6.6°C 33.5°F0.8°C 67% 5.6 mph SSW9.0 kmh SSW 9.1 mph14.6 kmh 30.18 in1022.0 mb 0.00 in0.0 mm 0.00 in/hr0.0 mm/hr 0.00 in0.0 mm
10:43 PM 44.1°F6.7°C 33.6°F0.9°C 67% 7.9 mph S12.7 kmh S 11.4 mph18.3 kmh 30.18 in1022.0 mb 0.00 in0.0 mm 0.00 in/hr0.0 mm/hr 0.00 in0.0 mm
10:53 PM 44.1°F6.7°C 33.6°F0.9°C 67% 7.5 mph SSE12.1 kmh SSE 10.4 mph16.7 kmh 30.16 in1021.3 mb 0.00 in0.0 mm 0.00 in/hr0.0 mm/hr 0.00 in0.0 mm
11:03 PM 44.1°F6.7°C 33.6°F0.9°C 67% 8.6 mph SSE13.8 kmh SSE 12.4 mph20.0 kmh 30.15 in1021.0 mb 0.00 in0.0 mm 0.00 in/hr0.0 mm/hr 0.00 in0.0 mm
11:13 PM 44.1°F6.7°C 34.0°F1.1°C 68% 9.3 mph S15.0 kmh S 12.4 mph20.0 kmh 30.14 in1020.7 mb 0.00 in0.0 mm 0.00 in/hr0.0 mm/hr 0.00 in0.0 mm
11:23 PM 44.2°F6.8°C 34.2°F1.2°C 68% 10.5 mph S16.9 kmh S 17.1 mph27.5 kmh 30.13 in1020.3 mb 0.00 in0.0 mm 0.00 in/hr0.0 mm/hr 0.00 in0.0 mm
11:33 PM 44.1°F6.7°C 34.0°F1.1°C 68% 8.4 mph SE13.5 kmh SE 13.8 mph22.2 kmh 30.13 in1020.3 mb 0.00 in0.0 mm 0.00 in/hr0.0 mm/hr 0.00 in0.0 mm
11:43 PM 44.1°F6.7°C 34.0°F1.1°C 68% 9.6 mph SSE15.4 kmh SSE 14.8 mph23.8 kmh 30.12 in1020.0 mb 0.00 in0.0 mm 0.00 in/hr0.0 mm/hr 0.00 in0.0 mm
11:53 PM 44.1°F6.7°C 34.0°F1.1°C 68% 10.7 mph SSE17.2 kmh SSE 14.8 mph23.8 kmh 30.11 in1019.6 mb 0.00 in0.0 mm 0.00 in/hr0.0 mm/hr 0.00 in0.0 mm